Lansing, Kansas
Current Conditions -  °F | °C
As of 4:53 AM on Friday 28 Nov 2014 (Local Time) from KMCI Reporting Station
Clear Clear  
Wind Chill: -5°   Ceiling: Unl
Heat Index:   Visibility: 10mi
Dew Point: -5°   Wind: 14mph
Humidity: 66%   Direction: 170°S
Pressure: 30.05"   Gusts: NA
Location:  39.24°N, 94.9°W
Report Text: KMCI 281053Z 17012KT 10SM CLR 01/M05 A3005 RMK AO2 SLP182 T00061050
Loading
Personal Weather Stations






























Interactive Weather Map New forecast layout! Learn more

10-Day Weather Forecast

Advertisements
Track Severe Weather on mobile